Time;durP1;ratioP1;P1;durP2;ratioP2;P2;SDS_P1;SDS_P2;PMS_P1;PMS_P2;Temp;Humidity;BMP_temperature;BMP_pressure;BME280_temperature;BME280_humidity;BME280_pressure;Samples;Min_cycle;Max_cycle;Signal;HPM_P1;HPM_P2
2022/05/01 00:02:23;;;;;;;3.20;1.15;;;;;;;2.96;71.72;101463.66;4992634;28;20096;-73
2022/05/01 00:04:49;;;;;;;2.33;0.77;;;;;;;2.98;72.31;101458.03;4990885;28;20039;-74
2022/05/01 00:07:14;;;;;;;0.82;0.82;;;;;;;2.93;72.57;101458.63;4989987;28;20039;-74
2022/05/01 00:09:40;;;;;;;1.38;1.00;;;;;;;2.98;72.49;101466.16;4991451;28;20420;-74
2022/05/01 00:12:08;;;;;;;2.90;1.30;;;;;;;2.97;72.40;101461.78;4991619;28;20042;-74
2022/05/01 00:14:36;;;;;;;2.38;0.80;;;;;;;3.00;72.43;101462.19;4990373;28;20045;-73
2022/05/01 00:17:02;;;;;;;3.67;0.90;;;;;;;3.09;73.05;101465.50;5008296;28;20076;-73
2022/05/01 00:19:28;;;;;;;2.60;1.10;;;;;;;3.09;72.72;101462.78;5009628;28;20066;-72
2022/05/01 00:21:55;;;;;;;2.30;0.85;;;;;;;3.14;72.38;101460.28;4993731;28;20032;-73
2022/05/01 00:24:22;;;;;;;1.65;1.20;;;;;;;3.26;72.61;101466.69;4991391;28;20100;-73
2022/05/01 00:26:48;;;;;;;2.08;1.02;;;;;;;3.38;72.75;101466.06;4989938;28;20042;-74
2022/05/01 00:29:13;;;;;;;2.65;0.82;;;;;;;3.44;72.35;101462.47;4990123;28;20108;-73
2022/05/01 00:31:40;;;;;;;4.22;1.20;;;;;;;3.49;72.40;101459.97;4990686;28;20054;-73
2022/05/01 00:36:50;;;;;;;2.00;0.70;;;;;;;3.47;72.47;101462.91;4998511;28;20042;-73
2022/05/01 00:39:15;;;;;;;1.27;0.80;;;;;;;3.47;72.10;101460.19;5013502;28;20124;-73
2022/05/01 00:41:41;;;;;;;3.17;1.13;;;;;;;3.53;72.69;101459.31;5007422;28;20077;-74
2022/05/01 00:44:08;;;;;;;1.00;0.70;;;;;;;3.58;72.64;101450.53;4994615;28;20038;-73
2022/05/01 00:46:41;;;;;;;3.72;1.00;;;;;;;3.63;73.10;101467.81;4994758;28;20096;-73
2022/05/01 00:49:10;;;;;;;2.17;0.85;;;;;;;3.68;73.02;101459.06;4994901;28;20042;-74
2022/05/01 00:52:12;;;;;;;1.90;0.80;;;;;;;3.66;72.87;101466.59;4994395;28;20493;-73
2022/05/01 00:54:40;;;;;;;3.85;0.98;;;;;;;3.60;73.52;101457.41;4990426;28;20576;-74
2022/05/01 00:57:07;;;;;;;0.95;0.90;;;;;;;3.58;73.38;101454.06;4993512;28;20049;-74
2022/05/01 00:59:36;;;;;;;1.13;0.85;;;;;;;3.60;73.31;101456.56;4994581;28;20066;-74
2022/05/01 01:02:02;;;;;;;6.28;1.00;;;;;;;3.64;73.86;101452.38;4992384;28;20918;-74
2022/05/01 01:04:28;;;;;;;2.65;0.90;;;;;;;3.68;74.09;101461.78;4994485;28;20046;-73
2022/05/01 01:06:53;;;;;;;3.20;1.05;;;;;;;3.68;73.78;101458.22;4992590;28;20049;-74
2022/05/01 01:09:19;;;;;;;0.80;0.80;;;;;;;3.66;74.33;101465.75;4993802;28;20046;-73
2022/05/01 01:11:45;;;;;;;2.17;1.00;;;;;;;3.59;74.54;101463.06;4977002;28;20038;-74
2022/05/01 01:14:11;;;;;;;1.70;0.90;;;;;;;3.55;75.10;101457.22;4994344;28;20046;-73
2022/05/01 01:16:38;;;;;;;2.03;1.02;;;;;;;3.54;75.52;101457.44;5005410;28;20121;-73
2022/05/01 01:19:08;;;;;;;1.23;1.00;;;;;;;3.53;75.43;101466.63;4992825;28;20138;-74
2022/05/01 01:21:35;;;;;;;1.25;0.80;;;;;;;3.56;75.65;101460.78;4993925;28;20461;-74
2022/05/01 01:24:03;;;;;;;1.65;0.90;;;;;;;3.53;75.61;101456.59;4976579;28;20062;-73
2022/05/01 01:26:30;;;;;;;4.57;1.08;;;;;;;3.48;75.92;101455.59;4992566;28;20046;-72
2022/05/01 01:28:57;;;;;;;1.38;0.88;;;;;;;3.48;76.07;101455.59;4992723;28;20061;-73
2022/05/01 01:31:41;;;;;;;4.32;1.40;;;;;;;3.50;75.54;101459.75;4974753;28;20184;-73
2022/05/01 01:34:11;;;;;;;1.48;0.82;;;;;;;3.52;76.11;101460.38;4997831;28;20046;-73
2022/05/01 01:36:38;;;;;;;3.70;1.10;;;;;;;3.54;76.13;101461.00;4992775;28;20099;-73
2022/05/01 01:39:05;;;;;;;1.20;0.63;;;;;;;3.56;76.17;101461.59;4993857;28;20393;-74
2022/05/01 01:41:32;;;;;;;1.67;0.90;;;;;;;3.58;76.12;101458.66;4992018;28;20038;-73
2022/05/01 01:43:58;;;;;;;2.47;1.10;;;;;;;3.56;75.65;101460.78;4993711;28;20034;-73
2022/05/01 01:46:24;;;;;;;1.38;0.90;;;;;;;3.58;76.07;101458.66;4991982;28;20046;-74
2022/05/01 01:48:51;;;;;;;2.65;1.08;;;;;;;3.52;76.03;101463.09;4993254;28;20046;-75
2022/05/01 01:51:17;;;;;;;1.08;0.98;;;;;;;3.55;75.80;101461.81;4993008;28;20085;-74
2022/05/01 01:53:43;;;;;;;1.90;1.00;;;;;;;3.56;76.37;101460.78;5008624;28;20042;-74
2022/05/01 01:56:09;;;;;;;3.45;1.23;;;;;;;3.59;75.68;101461.16;4993451;28;20524;-74
2022/05/01 01:58:38;;;;;;;3.30;1.05;;;;;;;3.60;76.16;101467.44;4993525;28;20035;-74
2022/05/01 02:01:06;;;;;;;1.80;1.13;;;;;;;3.59;75.66;101461.16;4990909;28;20078;-74
2022/05/01 02:03:32;;;;;;;5.57;1.27;;;;;;;3.62;75.44;101459.91;4992822;28;20073;-74
2022/05/01 02:05:57;;;;;;;3.83;1.30;;;;;;;3.62;75.99;101466.16;5008446;28;20133;-74
2022/05/01 02:08:23;;;;;;;3.22;1.25;;;;;;;3.61;75.39;101456.34;4993060;28;20132;-74
2022/05/01 02:10:49;;;;;;;3.17;1.25;;;;;;;3.62;75.73;101454.47;5021250;28;20042;-74
2022/05/01 02:13:16;;;;;;;1.88;1.20;;;;;;;3.59;75.29;101460.34;4973878;28;20038;-74
2022/05/01 02:15:41;;;;;;;4.18;1.50;;;;;;;3.59;75.75;101457.63;4980886;28;20054;-74
2022/05/01 02:18:10;;;;;;;3.47;1.27;;;;;;;3.63;75.90;101456.97;4995377;28;20042;-74
2022/05/01 02:23:21;;;;;;;2.42;1.23;;;;;;;3.74;75.65;101446.50;4991723;28;20428;-74
2022/05/01 02:25:47;;;;;;;4.95;1.40;;;;;;;3.80;75.35;101443.72;4992015;28;20050;-73
2022/05/01 02:28:13;;;;;;;1.80;1.30;;;;;;;3.86;75.62;101448.31;4973550;28;20417;-74
2022/05/01 02:30:39;;;;;;;3.08;1.27;;;;;;;3.85;75.49;101448.53;4973894;28;20051;-74
2022/05/01 02:33:06;;;;;;;2.45;1.15;;;;;;;3.87;75.24;101446.44;4991932;28;20042;-74
2022/05/01 02:35:32;;;;;;;2.85;1.35;;;;;;;3.96;75.08;101444.28;4990331;28;20038;-74
2022/05/01 02:37:59;;;;;;;2.78;1.10;;;;;;;4.02;75.04;101449.69;4992927;28;20045;-74
2022/05/01 02:40:25;;;;;;;2.28;1.33;;;;;;;4.02;75.01;101443.44;4992423;28;20062;-72
2022/05/01 02:42:51;;;;;;;3.58;1.00;;;;;;;4.02;74.67;101449.69;4992584;28;20038;-74
2022/05/01 02:45:17;;;;;;;2.25;1.42;;;;;;;4.04;74.62;101450.31;4991344;28;20097;-73
2022/05/01 02:47:43;;;;;;;3.75;1.60;;;;;;;4.05;74.68;101448.41;4992552;28;20042;-74
2022/05/01 02:50:10;;;;;;;2.47;1.30;;;;;;;4.08;75.04;101450.69;4990180;28;20520;-73
2022/05/01 02:52:35;;;;;;;2.72;1.10;;;;;;;4.12;74.31;101451.91;4992510;28;20486;-74
2022/05/01 02:55:01;;;;;;;3.17;1.25;;;;;;;4.14;74.52;101447.91;4992178;28;20525;-74
2022/05/01 02:57:27;;;;;;;2.42;1.38;;;;;;;4.13;74.83;101445.44;4991050;28;20062;-74
2022/05/01 02:59:52;;;;;;;4.80;1.58;;;;;;;4.14;74.51;101447.91;4990699;28;20038;-74
2022/05/01 03:02:18;;;;;;;2.67;1.20;;;;;;;4.17;74.51;101452.94;4991807;28;20133;-74
2022/05/01 03:04:45;;;;;;;3.70;1.35;;;;;;;4.19;75.09;101444.56;5022806;28;20117;-74
2022/05/01 03:07:12;;;;;;;2.00;1.10;;;;;;;4.24;75.10;101447.47;4992749;28;20093;-74
2022/05/01 03:09:38;;;;;;;1.70;1.20;;;;;;;4.25;74.75;101449.13;4992296;28;20034;-74
2022/05/01 03:12:05;;;;;;;2.80;1.30;;;;;;;4.22;75.24;101442.25;4992163;28;20129;-74
2022/05/01 03:14:31;;;;;;;4.50;1.50;;;;;;;4.20;75.03;101444.34;4992315;28;20045;-74
2022/05/01 03:16:57;;;;;;;2.92;1.25;;;;;;;4.20;75.94;101440.81;4990409;28;20034;-74
2022/05/01 03:22:10;;;;;;;3.03;1.10;;;;;;;4.22;75.57;101449.56;4991958;28;20041;-74
2022/05/01 03:24:36;;;;;;;3.08;1.50;;;;;;;4.22;75.42;101447.69;4999263;28;20532;-73
2022/05/01 03:27:03;;;;;;;2.20;1.60;;;;;;;4.21;75.49;101453.34;5011601;28;20049;-74
2022/05/01 03:29:28;;;;;;;3.50;1.27;;;;;;;4.24;75.59;101442.84;4993832;28;20065;-74
2022/05/01 03:31:54;;;;;;;2.63;1.33;;;;;;;4.26;75.80;101445.34;5005419;28;20100;-74
2022/05/01 03:34:22;;;;;;;3.97;1.33;;;;;;;4.28;75.77;101453.28;4996528;28;20042;-74
2022/05/01 03:36:48;;;;;;;1.80;1.23;;;;;;;4.37;75.47;101443.81;5022710;28;20046;-73
2022/05/01 03:39:15;;;;;;;3.10;1.42;;;;;;;4.42;75.69;101439.38;4988074;28;20046;-74
2022/05/01 03:41:41;;;;;;;5.35;1.40;;;;;;;4.49;75.36;101442.03;4991596;28;20473;-74
2022/05/01 03:44:07;;;;;;;3.10;1.33;;;;;;;4.44;75.75;101450.03;4990619;28;20080;-74
2022/05/01 03:46:36;;;;;;;2.95;1.40;;;;;;;4.51;74.96;101448.94;4990921;28;20073;-74
2022/05/01 03:49:03;;;;;;;3.23;1.23;;;;;;;4.57;75.00;101449.09;4991894;28;20048;-73
2022/05/01 03:51:31;;;;;;;2.67;1.40;;;;;;;4.60;75.13;101440.50;4990488;28;20455;-73
2022/05/01 03:57:15;;;;;;;2.97;1.20;;;;;;;4.62;74.96;101447.38;4991722;28;20054;-74
2022/05/01 03:59:41;;;;;;;3.75;1.55;;;;;;;4.63;75.14;101440.88;4990348;28;20312;-74
2022/05/01 04:02:06;;;;;;;2.53;1.27;;;;;;;4.65;74.97;101444.19;4992068;28;20050;-74
2022/05/01 04:04:32;;;;;;;2.58;1.30;;;;;;;4.62;74.40;101449.25;4991220;28;20035;-74
2022/05/01 04:06:58;;;;;;;4.65;1.40;;;;;;;4.61;74.86;101442.97;4990029;28;20050;-73
2022/05/01 04:09:24;;;;;;;3.08;1.48;;;;;;;4.62;75.03;101452.81;4990754;28;20049;-73
2022/05/01 04:11:51;;;;;;;3.40;1.27;;;;;;;4.70;74.78;101452.53;4992225;28;20666;-74
2022/05/01 04:14:18;;;;;;;1.35;1.20;;;;;;;4.75;74.77;101444.53;4976487;28;20177;-73
2022/05/01 04:16:44;;;;;;;2.63;1.35;;;;;;;4.77;75.11;101447.88;4991235;28;20043;-74
2022/05/01 04:19:11;;;;;;;3.72;1.25;;;;;;;4.75;74.80;101449.97;4989092;28;20132;-73
2022/05/01 04:21:37;;;;;;;2.58;1.30;;;;;;;4.79;74.83;101444.91;4998614;28;20042;-73
2022/05/01 04:24:03;;;;;;;4.15;1.45;;;;;;;4.85;74.70;101452.16;4994632;28;20416;-73
2022/05/01 04:26:29;;;;;;;2.17;1.40;;;;;;;4.87;74.68;101447.38;4993684;28;20054;-75
2022/05/01 04:31:39;;;;;;;1.88;1.17;;;;;;;4.92;74.68;101455.69;4994711;28;20053;-74
2022/05/01 04:34:04;;;;;;;1.73;1.42;;;;;;;4.92;74.64;101457.56;4993675;28;20038;-75
2022/05/01 04:36:31;;;;;;;3.55;1.30;;;;;;;4.94;75.19;101447.28;4992762;28;20081;-74
2022/05/01 04:38:56;;;;;;;4.28;1.35;;;;;;;4.92;74.95;101455.69;4992466;28;20528;-74
2022/05/01 04:41:22;;;;;;;2.50;1.75;;;;;;;4.96;74.95;101453.34;4996359;28;20038;-75
2022/05/01 04:43:53;;;;;;;2.40;1.55;;;;;;;4.93;74.50;101457.34;4981194;28;20124;-74
2022/05/01 04:46:19;;;;;;;4.43;1.63;;;;;;;4.90;75.24;101452.34;4990921;28;20046;-74
2022/05/01 04:48:44;;;;;;;3.45;1.60;;;;;;;4.88;75.17;101457.19;4994823;28;20050;-73
2022/05/01 04:51:10;;;;;;;5.10;1.58;;;;;;;4.88;75.58;101459.91;5009004;28;20061;-72
2022/05/01 04:53:36;;;;;;;3.58;1.60;;;;;;;4.88;75.86;101461.81;4992406;28;20472;-73
2022/05/01 04:57:04;;;;;;;6.53;1.65;;;;;;;4.89;75.45;101452.59;4994318;28;20551;-74
2022/05/01 04:58:48;;;;;;;4.28;1.50;;;;;;;4.91;75.74;101456.75;4977840;28;20120;-74
2022/05/01 05:01:15;;;;;;;3.97;1.50;;;;;;;4.97;75.52;101453.13;4994686;28;20125;-74
2022/05/01 05:03:41;;;;;;;3.92;2.08;;;;;;;4.97;75.90;101460.44;4996453;28;20045;-73
2022/05/01 05:06:06;;;;;;;2.25;1.65;;;;;;;5.02;74.83;101450.53;4993658;28;20038;-74
2022/05/01 05:11:16;;;;;;;3.20;1.90;;;;;;;5.02;75.03;101455.16;4986809;28;20799;-75
2022/05/01 05:13:42;;;;;;;4.75;2.17;;;;;;;5.06;75.02;101457.22;4993580;28;20072;-74
2022/05/01 05:16:13;;;;;;;3.13;1.50;;;;;;;5.12;75.51;101461.75;4976787;28;20037;-74
2022/05/01 05:18:42;;;;;;;3.10;1.70;;;;;;;5.22;74.66;101457.69;4993667;28;20046;-74
2022/05/01 05:21:08;;;;;;;2.65;1.60;;;;;;;5.30;74.59;101466.38;5003024;28;20038;-74
2022/05/01 05:23:34;;;;;;;3.20;1.60;;;;;;;5.36;74.10;101461.91;4995689;28;20042;-74
2022/05/01 05:25:59;;;;;;;2.50;1.40;;;;;;;5.44;73.91;101461.63;4993782;28;20088;-74
2022/05/01 05:28:26;;;;;;;5.25;1.75;;;;;;;5.59;73.67;101462.06;4994049;28;20038;-74
2022/05/01 05:30:51;;;;;;;2.90;1.67;;;;;;;5.75;73.69;101458.72;4971329;28;20146;-74
2022/05/01 05:33:18;;;;;;;4.18;1.85;;;;;;;5.92;72.81;101460.84;4994947;28;20125;-75
2022/05/01 05:35:44;;;;;;;2.88;1.48;;;;;;;6.09;72.83;101459.16;4990446;28;20571;-74
2022/05/01 05:38:10;;;;;;;3.60;1.50;;;;;;;6.31;71.55;101457.56;5005216;28;20134;-74
2022/05/01 05:40:36;;;;;;;4.05;1.75;;;;;;;6.48;70.95;101456.88;4988366;28;20149;-74
2022/05/01 05:43:01;;;;;;;3.08;1.35;;;;;;;6.66;70.09;101456.78;4995164;28;20091;-74
2022/05/01 05:45:27;;;;;;;2.55;1.55;;;;;;;6.74;69.31;101459.16;4990638;28;20505;-73
2022/05/01 05:47:53;;;;;;;3.22;1.33;;;;;;;6.78;69.29;101457.66;4986752;28;20100;-74
2022/05/01 05:50:19;;;;;;;4.57;1.52;;;;;;;6.79;68.36;101462.03;4987630;28;20041;-75
2022/05/01 05:52:45;;;;;;;1.95;1.40;;;;;;;6.64;68.92;101457.03;4994974;28;20034;-75
2022/05/01 05:55:10;;;;;;;3.65;1.60;;;;;;;6.55;68.87;101457.59;4993519;28;20034;-75
2022/05/01 05:57:36;;;;;;;3.92;1.77;;;;;;;6.58;68.57;101462.56;5005725;28;20038;-74
2022/05/01 06:00:04;;;;;;;4.70;1.73;;;;;;;6.74;69.02;101466.50;4980676;28;20123;-73
2022/05/01 06:02:38;;;;;;;2.90;1.52;;;;;;;6.93;68.38;101463.44;4995491;28;20128;-73
2022/05/01 06:05:04;;;;;;;2.78;1.42;;;;;;;7.07;67.52;101468.66;4992550;28;20129;-75
2022/05/01 06:07:29;;;;;;;3.35;1.85;;;;;;;7.10;67.25;101463.56;4979523;28;20033;-73
2022/05/01 06:09:55;;;;;;;5.95;1.67;;;;;;;7.13;66.87;101462.28;4985060;28;20562;-73
2022/05/01 06:12:21;;;;;;;2.72;1.65;;;;;;;7.35;67.34;101465.22;4985318;28;20061;-73
2022/05/01 06:14:46;;;;;;;2.78;1.55;;;;;;;7.59;66.83;101461.34;4993819;28;20057;-74
2022/05/01 06:17:12;;;;;;;2.50;1.75;;;;;;;7.80;66.11;101457.13;4975290;28;20509;-74
2022/05/01 06:19:39;;;;;;;3.03;2.08;;;;;;;7.84;64.74;101464.63;5005812;28;20556;-74
2022/05/01 06:22:05;;;;;;;2.25;1.52;;;;;;;7.91;64.89;101461.75;4991780;28;20043;-74
2022/05/01 06:24:31;;;;;;;2.92;1.60;;;;;;;7.99;63.90;101466.84;4992023;28;20041;-74
2022/05/01 06:26:57;;;;;;;2.78;1.67;;;;;;;8.00;64.02;101459.47;4989712;28;20046;-74
2022/05/01 06:29:23;;;;;;;4.38;1.60;;;;;;;7.91;64.11;101459.00;4976375;28;20805;-73
2022/05/01 06:31:48;;;;;;;4.10;1.85;;;;;;;7.86;64.65;101456.19;4993883;28;20056;-74
2022/05/01 06:34:15;;;;;;;2.42;1.42;;;;;;;7.80;64.25;101462.59;5022837;28;20351;-75
2022/05/01 06:36:41;;;;;;;3.10;1.65;;;;;;;7.72;64.95;101463.00;4997622;28;20080;-74
2022/05/01 06:39:09;;;;;;;1.83;1.48;;;;;;;7.62;64.80;101466.34;5004426;28;20046;-74
2022/05/01 06:41:35;;;;;;;5.03;1.77;;;;;;;7.48;65.44;101465.78;4990647;28;20497;-73
2022/05/01 06:44:00;;;;;;;2.45;1.63;;;;;;;7.39;65.79;101467.22;4995734;28;20041;-74
2022/05/01 06:46:26;;;;;;;6.43;3.00;;;;;;;7.38;65.14;101476.47;4991425;28;20390;-73
2022/05/01 06:48:51;;;;;;;5.72;1.88;;;;;;;7.44;65.38;101470.06;4993410;28;20038;-73
2022/05/01 06:51:17;;;;;;;4.70;1.90;;;;;;;7.53;64.89;101474.09;4990829;28;20510;-73
2022/05/01 06:53:42;;;;;;;3.75;1.60;;;;;;;7.54;65.05;101478.47;4991811;28;20139;-75
2022/05/01 06:56:08;;;;;;;2.80;1.60;;;;;;;7.47;64.60;101482.41;4986322;28;20042;-73
2022/05/01 06:58:35;;;;;;;7.57;1.75;;;;;;;7.39;65.35;101483.59;4985563;28;20165;-74
2022/05/01 07:01:01;;;;;;;4.13;2.00;;;;;;;7.37;66.07;101484.91;4991620;28;20768;-74
2022/05/01 07:03:27;;;;;;;2.47;1.80;;;;;;;7.47;65.34;101485.16;4991726;28;20065;-74
2022/05/01 07:05:53;;;;;;;4.75;1.90;;;;;;;7.60;64.70;101484.88;4991315;28;20088;-73
2022/05/01 07:08:19;;;;;;;2.55;1.88;;;;;;;7.85;63.69;101479.94;4985510;28;20029;-74
2022/05/01 07:10:44;;;;;;;7.88;2.58;;;;;;;8.30;63.26;101489.25;4991495;28;20034;-73
2022/05/01 07:13:10;;;;;;;2.50;1.80;;;;;;;9.01;61.53;101474.09;4984728;28;20042;-73
2022/05/01 07:15:39;;;;;;;3.33;1.77;;;;;;;9.52;60.18;101475.66;4977569;28;20047;-73
2022/05/01 07:18:06;;;;;;;2.40;1.40;;;;;;;9.71;57.40;101484.38;4988184;28;20034;-73
2022/05/01 07:20:34;;;;;;;2.42;1.75;;;;;;;9.81;56.37;101476.31;4988865;28;20038;-74
2022/05/01 07:23:00;;;;;;;2.67;1.98;;;;;;;9.88;56.02;101478.84;4997882;28;20124;-73
2022/05/01 07:25:25;;;;;;;2.80;1.70;;;;;;;10.09;56.40;101479.91;4981339;28;20133;-73
2022/05/01 07:27:51;;;;;;;3.45;1.88;;;;;;;10.26;55.17;101484.25;4994232;28;20034;-74
2022/05/01 07:30:17;;;;;;;2.60;1.85;;;;;;;10.46;54.94;101471.81;4991225;28;20149;-74
2022/05/01 07:32:42;;;;;;;5.05;2.10;;;;;;;10.42;54.57;101473.44;4995239;28;20097;-74
2022/05/01 07:35:08;;;;;;;3.13;1.70;;;;;;;10.43;54.89;101470.44;4991341;28;20050;-74
2022/05/01 07:37:34;;;;;;;4.70;2.03;;;;;;;10.48;54.70;101475.13;4991105;28;20066;-74
2022/05/01 07:40:01;;;;;;;4.05;2.30;;;;;;;10.57;54.77;101479.88;5002631;28;20065;-73
2022/05/01 07:42:26;;;;;;;5.45;2.05;;;;;;;10.66;53.68;101484.91;5005531;28;20045;-73
2022/05/01 07:44:52;;;;;;;3.08;1.98;;;;;;;10.73;53.62;101485.50;4979760;28;20030;-74
2022/05/01 07:47:18;;;;;;;5.63;2.13;;;;;;;10.88;53.99;101488.38;4995482;28;20034;-73
2022/05/01 07:49:44;;;;;;;3.38;1.58;;;;;;;11.67;52.40;101485.59;4981455;28;20038;-73
2022/05/01 07:52:09;;;;;;;3.38;1.73;;;;;;;12.54;50.97;101491.41;4989360;28;20030;-73
2022/05/01 07:54:35;;;;;;;3.95;2.15;;;;;;;13.38;48.89;101477.06;4981944;28;20065;-73
2022/05/01 07:57:00;;;;;;;2.13;1.63;;;;;;;13.77;47.48;101471.69;5021097;28;20382;-73
2022/05/01 07:59:26;;;;;;;2.17;1.40;;;;;;;14.63;45.67;101469.56;4992628;28;20057;-72
2022/05/01 08:01:54;;;;;;;2.47;1.55;;;;;;;15.50;43.54;101473.16;5021801;28;20382;-73
2022/05/01 08:04:29;;;;;;;3.10;1.80;;;;;;;16.30;42.10;101458.56;4994543;28;20100;-73
2022/05/01 08:06:59;;;;;;;4.03;1.35;;;;;;;17.12;39.40;101463.63;4991060;28;20101;-73
2022/05/01 08:09:26;;;;;;;4.20;1.25;;;;;;;17.91;38.27;101460.72;4988741;28;20394;-73
2022/05/01 08:11:52;;;;;;;3.38;1.85;;;;;;;17.93;37.57;101469.56;4990300;28;20038;-73
2022/05/01 08:14:19;;;;;;;1.88;1.65;;;;;;;17.58;38.53;101463.56;4994033;28;20120;-73
2022/05/01 08:16:45;;;;;;;2.92;1.35;;;;;;;17.89;37.55;101460.22;4992168;28;20033;-74
2022/05/01 08:21:55;;;;;;;2.38;1.95;;;;;;;16.80;38.45;101458.91;4979104;28;20497;-74
2022/05/01 08:24:21;;;;;;;2.80;1.45;;;;;;;15.61;39.81;101457.25;5004212;28;20048;-74
2022/05/01 08:26:48;;;;;;;3.92;1.80;;;;;;;14.61;41.44;101467.09;4980349;28;20137;-74
2022/05/01 08:29:14;;;;;;;7.20;1.80;;;;;;;14.44;43.17;101466.66;4991193;28;20412;-73
2022/05/01 08:31:43;;;;;;;2.40;1.55;;;;;;;15.24;41.41;101463.47;4980443;28;20058;-73
2022/05/01 08:34:10;;;;;;;4.45;1.50;;;;;;;15.97;40.46;101471.50;4991369;28;20136;-73
2022/05/01 08:36:36;;;;;;;4.35;1.77;;;;;;;16.69;39.23;101468.53;4989867;28;20042;-74
2022/05/01 08:39:02;;;;;;;3.50;2.05;;;;;;;16.32;38.89;101456.34;4993214;28;20042;-74
2022/05/01 08:41:29;;;;;;;3.78;1.90;;;;;;;15.21;40.19;101464.06;4973535;28;20410;-73
2022/05/01 08:44:00;;;;;;;6.30;2.25;;;;;;;14.10;42.06;101463.81;4996777;28;20038;-74
2022/05/01 08:46:41;;;;;;;3.58;2.00;;;;;;;13.21;44.47;101460.00;4988874;28;20046;-73
2022/05/01 08:49:08;;;;;;;2.40;1.60;;;;;;;13.08;44.95;101460.53;5007541;28;20042;-73
2022/05/01 08:51:38;;;;;;;3.08;1.85;;;;;;;13.75;44.22;101454.59;4997987;28;20097;-74
2022/05/01 08:54:09;;;;;;;5.85;2.08;;;;;;;14.37;43.10;101450.34;4987367;28;20081;-72
2022/05/01 08:56:36;;;;;;;5.65;2.25;;;;;;;14.53;42.42;101455.81;5002114;28;20057;-72
2022/05/01 08:59:05;;;;;;;3.35;2.20;;;;;;;15.04;42.19;101447.91;4986466;28;20122;-73
2022/05/01 09:01:34;;;;;;;5.18;2.08;;;;;;;15.52;41.77;101443.25;4996154;28;20054;-72
2022/05/01 09:04:01;;;;;;;1.92;1.75;;;;;;;15.64;41.28;101449.22;4988295;28;20042;-73
2022/05/01 09:06:27;;;;;;;2.97;2.15;;;;;;;15.96;40.47;101445.75;5002251;28;20096;-73
2022/05/01 09:08:53;;;;;;;2.47;1.73;;;;;;;16.25;39.60;101445.63;4985785;28;20073;-74
2022/05/01 09:14:04;;;;;;;3.70;1.70;;;;;;;16.18;39.20;101444.34;4987496;28;20038;-71
2022/05/01 09:16:31;;;;;;;3.17;2.20;;;;;;;16.27;38.65;101437.00;4992571;28;20038;-72
2022/05/01 09:18:56;;;;;;;8.07;1.95;;;;;;;16.07;38.52;101432.59;4988559;28;20089;-72
2022/05/01 09:21:22;;;;;;;2.33;1.60;;;;;;;15.34;38.62;101433.78;4993213;28;20042;-72
2022/05/01 09:23:48;;;;;;;1.70;1.40;;;;;;;14.87;39.40;101430.94;4991252;28;20420;-72
2022/05/01 09:26:15;;;;;;;2.20;1.63;;;;;;;14.50;38.70;101426.84;4993369;28;20049;-72
2022/05/01 09:28:47;;;;;;;4.57;1.48;;;;;;;14.33;39.71;101423.63;4994243;28;20038;-73
2022/05/01 09:31:13;;;;;;;4.75;2.17;;;;;;;14.28;39.43;101424.47;4992829;28;20046;-72
2022/05/01 09:33:39;;;;;;;5.10;1.67;;;;;;;13.96;39.71;101427.72;4993242;28;20461;-72
2022/05/01 09:36:05;;;;;;;3.90;1.30;;;;;;;13.60;40.37;101423.50;4996807;28;20042;-72
2022/05/01 09:38:30;;;;;;;3.45;1.40;;;;;;;13.31;40.19;101421.38;4995676;28;20046;-73
2022/05/01 09:40:58;;;;;;;2.45;1.75;;;;;;;13.08;39.54;101419.22;4991554;28;20117;-73
2022/05/01 09:43:35;;;;;;;2.65;1.50;;;;;;;12.85;40.87;101413.19;4992778;28;20196;-73
2022/05/01 09:46:22;;;;;;;3.63;1.17;;;;;;;12.40;40.79;101416.78;4988280;28;20088;-72
2022/05/01 09:49:13;;;;;;;1.52;0.93;;;;;;;11.90;41.10;101409.25;4991449;28;20046;-74
2022/05/01 09:51:43;;;;;;;1.52;0.80;;;;;;;11.53;41.21;101412.13;4988145;28;20045;-72
2022/05/01 09:54:09;;;;;;;3.45;1.00;;;;;;;11.29;43.11;101420.00;4993346;28;20054;-73
2022/05/01 09:56:46;;;;;;;2.55;1.13;;;;;;;10.93;42.69;101414.28;4993210;28;20084;-72
2022/05/01 09:59:12;;;;;;;2.10;0.90;;;;;;;10.78;43.63;101409.53;4989396;28;20055;-72
2022/05/01 10:01:38;;;;;;;3.67;1.10;;;;;;;10.92;43.02;101398.06;4995242;28;20048;-73
2022/05/01 10:04:04;;;;;;;1.40;1.00;;;;;;;11.07;43.37;101409.97;5001918;28;20050;-72
2022/05/01 10:06:31;;;;;;;1.83;1.23;;;;;;;11.17;43.53;101415.53;4992777;28;20603;-70
2022/05/01 10:08:57;;;;;;;4.57;1.02;;;;;;;11.08;44.07;101406.13;4992450;28;20060;-72
2022/05/01 10:11:23;;;;;;;5.25;1.30;;;;;;;11.08;43.74;101408.88;4993033;28;20604;-73
2022/05/01 10:13:50;;;;;;;2.72;1.30;;;;;;;11.00;44.02;101412.13;4989500;28;20126;-73
2022/05/01 10:16:16;;;;;;;1.70;1.00;;;;;;;10.96;43.39;101418.44;4972374;28;20407;-74
2022/05/01 10:18:45;;;;;;;0.98;0.90;;;;;;;10.85;43.56;101412.84;4997681;28;20092;-73
2022/05/01 10:21:11;;;;;;;1.48;0.80;;;;;;;10.72;43.76;101412.47;4993093;28;20046;-73
2022/05/01 10:23:38;;;;;;;1.75;1.05;;;;;;;10.70;43.35;101411.91;4992684;28;20097;-73
2022/05/01 10:26:20;;;;;;;1.80;1.17;;;;;;;10.65;43.94;101418.19;4992131;28;20053;-74
2022/05/01 10:28:57;;;;;;;1.85;1.00;;;;;;;10.51;43.64;101412.31;4990716;28;20088;-73
2022/05/01 10:34:47;;;;;;;1.00;0.88;;;;;;;10.46;43.87;101409.53;4993012;28;20053;-73
2022/05/01 10:37:24;;;;;;;1.00;0.90;;;;;;;10.55;43.13;101407.13;4990718;28;20505;-74
2022/05/01 10:39:50;;;;;;;2.35;0.98;;;;;;;10.49;43.80;101414.50;5011850;28;20386;-74
2022/05/01 10:42:45;;;;;;;2.17;1.00;;;;;;;10.70;43.95;101409.16;5012028;28;20042;-74
2022/05/01 10:45:23;;;;;;;3.55;0.98;;;;;;;10.58;43.78;101412.91;4992043;28;20181;-74
2022/05/01 10:47:54;;;;;;;1.85;1.10;;;;;;;10.45;43.52;101407.06;4992123;28;20077;-73
2022/05/01 10:50:25;;;;;;;3.28;0.98;;;;;;;10.23;43.56;101405.22;4991022;28;20042;-73
2022/05/01 10:53:05;;;;;;;2.50;1.35;;;;;;;10.07;44.48;101405.31;4992429;28;20050;-73
2022/05/01 10:55:51;;;;;;;1.15;1.00;;;;;;;9.95;45.07;101408.19;4992446;28;20509;-73
2022/05/01 10:58:26;;;;;;;1.45;1.10;;;;;;;9.78;45.18;101408.28;4998415;28;20068;-73
2022/05/01 11:00:53;;;;;;;3.55;1.48;;;;;;;9.68;45.98;101409.00;5011997;28;20096;-73
2022/05/01 11:03:27;;;;;;;1.25;0.80;;;;;;;9.58;46.17;101413.53;5004136;28;20042;-73
2022/05/01 11:06:08;;;;;;;1.50;1.00;;;;;;;9.51;46.18;101407.41;4990263;28;20042;-73
2022/05/01 11:08:36;;;;;;;1.33;0.90;;;;;;;9.45;46.30;101401.06;4991242;28;20141;-73
2022/05/01 11:11:08;;;;;;;1.42;1.10;;;;;;;9.42;46.35;101408.94;4992061;28;20040;-73
2022/05/01 11:13:36;;;;;;;1.90;0.93;;;;;;;9.41;46.65;101401.81;4991613;28;20050;-73
2022/05/01 11:16:07;;;;;;;2.40;1.17;;;;;;;9.42;46.97;101404.31;4991875;28;20440;-73
2022/05/01 11:18:40;;;;;;;0.80;0.80;;;;;;;9.49;47.69;101409.56;4991879;28;20053;-73
2022/05/01 11:21:24;;;;;;;2.05;1.17;;;;;;;9.53;47.48;101413.47;4992180;28;20177;-73
2022/05/01 11:24:01;;;;;;;2.03;0.88;;;;;;;9.52;46.74;101409.88;4991699;28;20034;-73
2022/05/01 11:26:27;;;;;;;1.52;0.85;;;;;;;9.47;46.83;101406.28;4991253;28;20073;-72
2022/05/01 11:28:53;;;;;;;2.60;1.10;;;;;;;9.50;47.64;101409.31;4990585;28;20076;-74
2022/05/01 11:31:37;;;;;;;1.40;1.27;;;;;;;9.67;47.40;101409.25;4994686;28;20054;-73
2022/05/01 11:34:24;;;;;;;1.73;1.20;;;;;;;9.63;47.41;101408.13;4991698;28;20069;-74
2022/05/01 11:36:53;;;;;;;1.27;0.85;;;;;;;9.61;47.64;101411.13;5005073;28;20208;-75
2022/05/01 11:39:22;;;;;;;3.65;1.00;;;;;;;9.65;47.43;101404.03;5011387;28;20523;-75
2022/05/01 11:42:00;;;;;;;;;;;;;;;9.73;46.66;101399.19;5010585;28;20084;-73
2022/05/01 11:44:28;;;;;;;2.80;1.27;;;;;;;9.75;46.87;101397.03;4991234;28;19930;-75
2022/05/01 11:46:55;;;;;;;1.50;1.00;;;;;;;9.71;46.66;101402.16;4991446;28;20046;-75
2022/05/01 11:49:21;;;;;;;2.20;1.17;;;;;;;9.67;47.60;101399.13;4991327;28;20100;-75
2022/05/01 11:51:47;;;;;;;1.50;1.10;;;;;;;9.64;47.38;101396.06;4991426;28;20046;-75
2022/05/01 11:54:14;;;;;;;2.78;1.40;;;;;;;9.70;47.85;101399.69;4991151;28;20057;-75
2022/05/01 12:02:27;;;;;;;1.40;0.82;;;;;;;9.70;48.45;101396.94;4991030;28;20038;-75
2022/05/01 12:05:04;;;;;;;1.63;0.85;;;;;;;9.58;49.22;101402.59;4991008;28;20501;-76
2022/05/01 12:07:30;;;;;;;2.13;1.35;;;;;;;9.56;49.39;101397.34;4991341;28;20050;-76